Terminal Aerodrome Forecast
Issued by NWS

Home | Current Version | Previous Version | Text Only | Print | Product List | Glossary On
Versions: 1 2 3 4 5 6 7 8 9 10 11 12 13 14 15 16
082
FTUS42 KMLB 210712 AAA
TAFFPR
TAF AMD
KFPR 210712Z 2107/2206 09003KT P6SM VCSH SCT020 SCT150
      TEMPO 2107/2109 3SM SHRA BKN025
     FM211400 10011KT P6SM SCT025
     FM211700 10011G18KT P6SM FEW030
     FM220100 09009KT P6SM FEW025=

USA.gov is the U.S. government's official web portal to all federal, state and local government web resources and services.